sensor_id;sensor_type;location;lat;lon;timestamp;P1;durP1;ratioP1;P2;durP2;ratioP2
22211;SDS011;11275;52.488;13.462;2022-10-17T00:00:51;8.27;;;7.40;;
22211;SDS011;11275;52.488;13.462;2022-10-17T00:03:17;9.65;;;7.53;;
22211;SDS011;11275;52.488;13.462;2022-10-17T00:05:46;8.57;;;7.38;;
22211;SDS011;11275;52.488;13.462;2022-10-17T00:08:13;7.93;;;6.88;;
22211;SDS011;11275;52.488;13.462;2022-10-17T00:10:40;9.32;;;7.45;;
22211;SDS011;11275;52.488;13.462;2022-10-17T00:13:06;9.23;;;7.47;;
22211;SDS011;11275;52.488;13.462;2022-10-17T00:15:33;8.18;;;7.18;;
22211;SDS011;11275;52.488;13.462;2022-10-17T00:17:59;9.70;;;7.65;;
22211;SDS011;11275;52.488;13.462;2022-10-17T00:20:25;8.80;;;7.47;;
22211;SDS011;11275;52.488;13.462;2022-10-17T00:22:51;8.10;;;7.30;;
22211;SDS011;11275;52.488;13.462;2022-10-17T00:25:17;9.30;;;7.55;;
22211;SDS011;11275;52.488;13.462;2022-10-17T00:27:42;10.52;;;7.75;;
22211;SDS011;11275;52.488;13.462;2022-10-17T00:30:12;9.55;;;7.82;;
22211;SDS011;11275;52.488;13.462;2022-10-17T00:32:39;11.30;;;7.32;;
22211;SDS011;11275;52.488;13.462;2022-10-17T00:35:05;7.72;;;6.63;;
22211;SDS011;11275;52.488;13.462;2022-10-17T00:37:31;9.38;;;7.28;;
22211;SDS011;11275;52.488;13.462;2022-10-17T00:39:58;7.40;;;6.63;;
22211;SDS011;11275;52.488;13.462;2022-10-17T00:42:24;7.80;;;6.57;;
22211;SDS011;11275;52.488;13.462;2022-10-17T00:45:03;8.02;;;6.93;;
22211;SDS011;11275;52.488;13.462;2022-10-17T00:47:36;7.93;;;6.68;;
22211;SDS011;11275;52.488;13.462;2022-10-17T00:50:03;8.75;;;7.25;;
22211;SDS011;11275;52.488;13.462;2022-10-17T00:52:30;8.93;;;6.40;;
22211;SDS011;11275;52.488;13.462;2022-10-17T00:55:00;7.05;;;6.35;;
22211;SDS011;11275;52.488;13.462;2022-10-17T00:57:47;8.55;;;5.70;;
22211;SDS011;11275;52.488;13.462;2022-10-17T01:00:13;6.25;;;5.53;;
22211;SDS011;11275;52.488;13.462;2022-10-17T01:02:40;7.35;;;5.75;;
22211;SDS011;11275;52.488;13.462;2022-10-17T01:05:06;7.05;;;6.35;;
22211;SDS011;11275;52.488;13.462;2022-10-17T01:07:33;7.15;;;5.47;;
22211;SDS011;11275;52.488;13.462;2022-10-17T01:09:59;7.10;;;5.32;;
22211;SDS011;11275;52.488;13.462;2022-10-17T01:12:31;9.30;;;5.65;;
22211;SDS011;11275;52.488;13.462;2022-10-17T01:15:13;6.60;;;5.65;;
22211;SDS011;11275;52.488;13.462;2022-10-17T01:20:28;7.20;;;5.63;;
22211;SDS011;11275;52.488;13.462;2022-10-17T01:31:39;6.50;;;5.43;;
22211;SDS011;11275;52.488;13.462;2022-10-17T01:34:18;7.10;;;5.20;;
22211;SDS011;11275;52.488;13.462;2022-10-17T01:37:07;5.25;;;4.75;;
22211;SDS011;11275;52.488;13.462;2022-10-17T01:42:23;6.22;;;4.93;;
22211;SDS011;11275;52.488;13.462;2022-10-17T01:45:02;6.03;;;4.65;;
22211;SDS011;11275;52.488;13.462;2022-10-17T01:47:33;6.22;;;4.15;;
22211;SDS011;11275;52.488;13.462;2022-10-17T01:50:03;5.60;;;3.60;;
22211;SDS011;11275;52.488;13.462;2022-10-17T01:52:36;4.65;;;3.75;;
22211;SDS011;11275;52.488;13.462;2022-10-17T01:57:37;4.10;;;3.70;;
22211;SDS011;11275;52.488;13.462;2022-10-17T02:00:07;4.45;;;3.80;;
22211;SDS011;11275;52.488;13.462;2022-10-17T02:02:37;4.07;;;3.60;;
22211;SDS011;11275;52.488;13.462;2022-10-17T02:05:05;5.65;;;3.55;;
22211;SDS011;11275;52.488;13.462;2022-10-17T02:07:32;4.78;;;4.20;;
22211;SDS011;11275;52.488;13.462;2022-10-17T02:09:58;5.97;;;3.85;;
22211;SDS011;11275;52.488;13.462;2022-10-17T02:18:23;3.95;;;3.55;;
22211;SDS011;11275;52.488;13.462;2022-10-17T02:21:14;5.03;;;3.60;;
22211;SDS011;11275;52.488;13.462;2022-10-17T02:23:55;3.97;;;3.55;;
22211;SDS011;11275;52.488;13.462;2022-10-17T02:29:21;4.10;;;3.35;;
22211;SDS011;11275;52.488;13.462;2022-10-17T02:32:00;5.28;;;4.00;;
22211;SDS011;11275;52.488;13.462;2022-10-17T02:34:37;4.07;;;3.38;;
22211;SDS011;11275;52.488;13.462;2022-10-17T02:37:06;4.15;;;3.10;;
22211;SDS011;11275;52.488;13.462;2022-10-17T02:39:34;3.90;;;3.38;;
22211;SDS011;11275;52.488;13.462;2022-10-17T02:42:03;3.60;;;3.30;;
22211;SDS011;11275;52.488;13.462;2022-10-17T02:44:31;6.15;;;3.15;;
22211;SDS011;11275;52.488;13.462;2022-10-17T02:47:07;4.10;;;3.20;;
22211;SDS011;11275;52.488;13.462;2022-10-17T02:49:40;4.55;;;3.17;;
22211;SDS011;11275;52.488;13.462;2022-10-17T02:52:25;3.30;;;2.97;;
22211;SDS011;11275;52.488;13.462;2022-10-17T02:57:22;5.22;;;3.83;;
22211;SDS011;11275;52.488;13.462;2022-10-17T03:00:00;3.78;;;3.47;;
22211;SDS011;11275;52.488;13.462;2022-10-17T03:02:36;5.75;;;3.70;;
22211;SDS011;11275;52.488;13.462;2022-10-17T03:05:04;4.00;;;3.20;;
22211;SDS011;11275;52.488;13.462;2022-10-17T03:07:29;4.40;;;3.40;;
22211;SDS011;11275;52.488;13.462;2022-10-17T03:09:55;4.10;;;3.38;;
22211;SDS011;11275;52.488;13.462;2022-10-17T03:12:21;5.32;;;3.65;;
22211;SDS011;11275;52.488;13.462;2022-10-17T03:14:46;3.78;;;3.35;;
22211;SDS011;11275;52.488;13.462;2022-10-17T03:17:12;4.78;;;3.60;;
22211;SDS011;11275;52.488;13.462;2022-10-17T03:19:37;3.72;;;3.33;;
22211;SDS011;11275;52.488;13.462;2022-10-17T03:22:03;5.00;;;3.45;;
22211;SDS011;11275;52.488;13.462;2022-10-17T03:24:28;4.35;;;3.30;;
22211;SDS011;11275;52.488;13.462;2022-10-17T03:26:54;4.40;;;3.60;;
22211;SDS011;11275;52.488;13.462;2022-10-17T03:29:19;5.72;;;3.88;;
22211;SDS011;11275;52.488;13.462;2022-10-17T03:31:45;4.90;;;3.60;;
22211;SDS011;11275;52.488;13.462;2022-10-17T03:34:11;3.47;;;3.17;;
22211;SDS011;11275;52.488;13.462;2022-10-17T03:36:36;3.88;;;3.10;;
22211;SDS011;11275;52.488;13.462;2022-10-17T03:39:02;3.85;;;3.25;;
22211;SDS011;11275;52.488;13.462;2022-10-17T03:41:28;4.30;;;3.15;;
22211;SDS011;11275;52.488;13.462;2022-10-17T03:43:53;5.22;;;3.40;;
22211;SDS011;11275;52.488;13.462;2022-10-17T03:46:19;4.55;;;3.30;;
22211;SDS011;11275;52.488;13.462;2022-10-17T03:48:44;3.22;;;2.92;;
22211;SDS011;11275;52.488;13.462;2022-10-17T03:51:10;4.32;;;3.20;;
22211;SDS011;11275;52.488;13.462;2022-10-17T03:53:35;3.80;;;3.15;;
22211;SDS011;11275;52.488;13.462;2022-10-17T03:56:11;3.53;;;3.20;;
22211;SDS011;11275;52.488;13.462;2022-10-17T03:58:39;4.07;;;2.78;;
22211;SDS011;11275;52.488;13.462;2022-10-17T04:01:05;9.05;;;3.65;;
22211;SDS011;11275;52.488;13.462;2022-10-17T04:03:33;5.50;;;3.45;;
22211;SDS011;11275;52.488;13.462;2022-10-17T04:05:59;4.15;;;3.75;;
22211;SDS011;11275;52.488;13.462;2022-10-17T04:08:25;3.85;;;2.92;;
22211;SDS011;11275;52.488;13.462;2022-10-17T04:10:51;5.57;;;3.80;;
22211;SDS011;11275;52.488;13.462;2022-10-17T04:13:17;4.50;;;4.05;;
22211;SDS011;11275;52.488;13.462;2022-10-17T04:15:55;4.93;;;3.55;;
22211;SDS011;11275;52.488;13.462;2022-10-17T04:18:22;5.05;;;3.75;;
22211;SDS011;11275;52.488;13.462;2022-10-17T04:20:48;5.10;;;3.55;;
22211;SDS011;11275;52.488;13.462;2022-10-17T04:23:14;3.65;;;3.35;;
22211;SDS011;11275;52.488;13.462;2022-10-17T04:25:40;4.78;;;3.50;;
22211;SDS011;11275;52.488;13.462;2022-10-17T04:28:05;4.10;;;3.58;;
22211;SDS011;11275;52.488;13.462;2022-10-17T04:30:31;4.85;;;3.63;;
22211;SDS011;11275;52.488;13.462;2022-10-17T04:32:56;5.65;;;3.92;;
22211;SDS011;11275;52.488;13.462;2022-10-17T04:35:22;3.85;;;3.10;;
22211;SDS011;11275;52.488;13.462;2022-10-17T04:37:48;3.70;;;3.35;;
22211;SDS011;11275;52.488;13.462;2022-10-17T04:40:13;4.03;;;3.30;;
22211;SDS011;11275;52.488;13.462;2022-10-17T04:42:39;3.95;;;3.50;;
22211;SDS011;11275;52.488;13.462;2022-10-17T04:45:04;3.80;;;3.35;;
22211;SDS011;11275;52.488;13.462;2022-10-17T04:47:30;5.25;;;3.80;;
22211;SDS011;11275;52.488;13.462;2022-10-17T04:49:56;4.22;;;3.83;;
22211;SDS011;11275;52.488;13.462;2022-10-17T04:52:22;5.38;;;4.07;;
22211;SDS011;11275;52.488;13.462;2022-10-17T04:54:49;3.40;;;3.10;;
22211;SDS011;11275;52.488;13.462;2022-10-17T04:57:14;4.50;;;3.65;;
22211;SDS011;11275;52.488;13.462;2022-10-17T04:59:40;5.07;;;3.80;;
22211;SDS011;11275;52.488;13.462;2022-10-17T05:02:06;4.35;;;3.70;;
22211;SDS011;11275;52.488;13.462;2022-10-17T05:04:32;4.90;;;4.10;;
22211;SDS011;11275;52.488;13.462;2022-10-17T05:06:57;5.90;;;4.05;;
22211;SDS011;11275;52.488;13.462;2022-10-17T05:09:23;6.80;;;3.67;;
22211;SDS011;11275;52.488;13.462;2022-10-17T05:11:48;5.57;;;3.55;;
22211;SDS011;11275;52.488;13.462;2022-10-17T05:14:14;4.63;;;4.22;;
22211;SDS011;11275;52.488;13.462;2022-10-17T05:16:40;4.57;;;4.10;;
22211;SDS011;11275;52.488;13.462;2022-10-17T05:19:05;4.25;;;3.85;;
22211;SDS011;11275;52.488;13.462;2022-10-17T05:21:31;5.85;;;3.70;;
22211;SDS011;11275;52.488;13.462;2022-10-17T05:23:57;4.38;;;3.97;;
22211;SDS011;11275;52.488;13.462;2022-10-17T05:26:23;4.10;;;3.58;;
22211;SDS011;11275;52.488;13.462;2022-10-17T05:28:50;6.05;;;4.03;;
22211;SDS011;11275;52.488;13.462;2022-10-17T05:31:18;4.57;;;4.10;;
22211;SDS011;11275;52.488;13.462;2022-10-17T05:33:44;6.25;;;3.88;;
22211;SDS011;11275;52.488;13.462;2022-10-17T05:36:10;7.88;;;4.80;;
22211;SDS011;11275;52.488;13.462;2022-10-17T05:38:36;10.65;;;6.32;;
22211;SDS011;11275;52.488;13.462;2022-10-17T05:41:02;4.72;;;4.32;;
22211;SDS011;11275;52.488;13.462;2022-10-17T05:43:29;5.57;;;4.20;;
22211;SDS011;11275;52.488;13.462;2022-10-17T05:45:55;4.85;;;3.70;;
22211;SDS011;11275;52.488;13.462;2022-10-17T05:48:21;5.55;;;4.45;;
22211;SDS011;11275;52.488;13.462;2022-10-17T05:50:47;6.90;;;4.40;;
22211;SDS011;11275;52.488;13.462;2022-10-17T05:53:13;4.72;;;4.03;;
22211;SDS011;11275;52.488;13.462;2022-10-17T05:55:40;5.15;;;4.57;;
22211;SDS011;11275;52.488;13.462;2022-10-17T05:58:05;5.55;;;5.05;;
22211;SDS011;11275;52.488;13.462;2022-10-17T06:00:31;6.13;;;4.22;;
22211;SDS011;11275;52.488;13.462;2022-10-17T06:02:56;5.80;;;4.38;;
22211;SDS011;11275;52.488;13.462;2022-10-17T06:05:22;6.03;;;4.20;;
22211;SDS011;11275;52.488;13.462;2022-10-17T06:07:48;7.82;;;4.90;;
22211;SDS011;11275;52.488;13.462;2022-10-17T06:10:16;7.68;;;4.50;;
22211;SDS011;11275;52.488;13.462;2022-10-17T06:12:42;5.50;;;4.80;;
22211;SDS011;11275;52.488;13.462;2022-10-17T06:15:09;5.78;;;4.13;;
22211;SDS011;11275;52.488;13.462;2022-10-17T06:17:35;6.55;;;4.32;;
22211;SDS011;11275;52.488;13.462;2022-10-17T06:20:01;5.38;;;4.40;;
22211;SDS011;11275;52.488;13.462;2022-10-17T06:22:26;5.20;;;4.05;;
22211;SDS011;11275;52.488;13.462;2022-10-17T06:24:52;5.40;;;4.32;;
22211;SDS011;11275;52.488;13.462;2022-10-17T06:27:18;4.70;;;4.20;;
22211;SDS011;11275;52.488;13.462;2022-10-17T06:29:45;6.80;;;4.93;;
22211;SDS011;11275;52.488;13.462;2022-10-17T06:32:11;6.45;;;4.45;;
22211;SDS011;11275;52.488;13.462;2022-10-17T06:34:37;4.53;;;4.13;;
22211;SDS011;11275;52.488;13.462;2022-10-17T06:37:02;5.93;;;4.45;;
22211;SDS011;11275;52.488;13.462;2022-10-17T06:39:28;5.10;;;4.38;;
22211;SDS011;11275;52.488;13.462;2022-10-17T06:41:58;6.32;;;4.93;;
22211;SDS011;11275;52.488;13.462;2022-10-17T06:44:24;6.07;;;5.10;;
22211;SDS011;11275;52.488;13.462;2022-10-17T06:46:54;5.63;;;4.47;;
22211;SDS011;11275;52.488;13.462;2022-10-17T06:49:20;7.22;;;5.28;;
22211;SDS011;11275;52.488;13.462;2022-10-17T06:51:46;4.80;;;4.30;;
22211;SDS011;11275;52.488;13.462;2022-10-17T06:54:11;7.45;;;4.90;;
22211;SDS011;11275;52.488;13.462;2022-10-17T06:56:37;7.68;;;4.88;;
22211;SDS011;11275;52.488;13.462;2022-10-17T06:59:02;10.68;;;6.07;;
22211;SDS011;11275;52.488;13.462;2022-10-17T07:01:29;7.15;;;5.03;;
22211;SDS011;11275;52.488;13.462;2022-10-17T07:03:55;6.22;;;5.25;;
22211;SDS011;11275;52.488;13.462;2022-10-17T07:06:21;6.95;;;4.72;;
22211;SDS011;11275;52.488;13.462;2022-10-17T07:08:48;5.78;;;4.55;;
22211;SDS011;11275;52.488;13.462;2022-10-17T07:11:15;8.00;;;4.93;;
22211;SDS011;11275;52.488;13.462;2022-10-17T07:13:44;5.65;;;4.80;;
22211;SDS011;11275;52.488;13.462;2022-10-17T07:16:10;8.27;;;5.97;;
22211;SDS011;11275;52.488;13.462;2022-10-17T07:18:36;6.22;;;4.57;;
22211;SDS011;11275;52.488;13.462;2022-10-17T07:21:02;6.93;;;5.85;;
22211;SDS011;11275;52.488;13.462;2022-10-17T07:23:28;6.15;;;4.90;;
22211;SDS011;11275;52.488;13.462;2022-10-17T07:25:58;5.35;;;4.63;;
22211;SDS011;11275;52.488;13.462;2022-10-17T07:30:51;6.63;;;5.60;;
22211;SDS011;11275;52.488;13.462;2022-10-17T07:33:17;5.30;;;4.60;;
22211;SDS011;11275;52.488;13.462;2022-10-17T07:35:42;7.90;;;4.70;;
22211;SDS011;11275;52.488;13.462;2022-10-17T07:38:08;5.65;;;4.20;;
22211;SDS011;11275;52.488;13.462;2022-10-17T07:40:33;5.97;;;5.07;;
22211;SDS011;11275;52.488;13.462;2022-10-17T07:42:59;5.65;;;4.72;;
22211;SDS011;11275;52.488;13.462;2022-10-17T07:45:25;5.15;;;4.20;;
22211;SDS011;11275;52.488;13.462;2022-10-17T07:47:54;4.68;;;3.90;;
22211;SDS011;11275;52.488;13.462;2022-10-17T07:50:21;5.82;;;4.20;;
22211;SDS011;11275;52.488;13.462;2022-10-17T07:52:46;8.35;;;3.78;;
22211;SDS011;11275;52.488;13.462;2022-10-17T07:55:12;7.60;;;4.60;;
22211;SDS011;11275;52.488;13.462;2022-10-17T07:57:38;5.20;;;3.88;;
22211;SDS011;11275;52.488;13.462;2022-10-17T08:00:05;6.25;;;3.80;;
22211;SDS011;11275;52.488;13.462;2022-10-17T08:02:31;3.75;;;3.30;;
22211;SDS011;11275;52.488;13.462;2022-10-17T08:04:57;4.70;;;3.30;;
22211;SDS011;11275;52.488;13.462;2022-10-17T08:07:22;6.43;;;3.45;;
22211;SDS011;11275;52.488;13.462;2022-10-17T08:09:48;4.65;;;3.53;;
22211;SDS011;11275;52.488;13.462;2022-10-17T08:12:14;5.32;;;3.40;;
22211;SDS011;11275;52.488;13.462;2022-10-17T08:14:40;4.45;;;3.22;;
22211;SDS011;11275;52.488;13.462;2022-10-17T08:17:06;5.03;;;3.20;;
22211;SDS011;11275;52.488;13.462;2022-10-17T08:19:32;5.25;;;2.92;;
22211;SDS011;11275;52.488;13.462;2022-10-17T08:21:58;6.53;;;2.90;;
22211;SDS011;11275;52.488;13.462;2022-10-17T08:24:23;6.82;;;3.20;;
22211;SDS011;11275;52.488;13.462;2022-10-17T08:26:49;5.45;;;3.17;;
22211;SDS011;11275;52.488;13.462;2022-10-17T08:29:17;4.72;;;2.65;;
22211;SDS011;11275;52.488;13.462;2022-10-17T08:31:43;4.47;;;2.92;;
22211;SDS011;11275;52.488;13.462;2022-10-17T08:34:09;3.85;;;2.67;;
22211;SDS011;11275;52.488;13.462;2022-10-17T08:36:34;3.90;;;2.60;;
22211;SDS011;11275;52.488;13.462;2022-10-17T08:39:00;5.57;;;2.60;;
22211;SDS011;11275;52.488;13.462;2022-10-17T08:44:07;2.88;;;2.55;;
22211;SDS011;11275;52.488;13.462;2022-10-17T08:46:43;4.10;;;2.65;;
22211;SDS011;11275;52.488;13.462;2022-10-17T08:49:18;4.80;;;2.45;;
22211;SDS011;11275;52.488;13.462;2022-10-17T08:52:06;4.57;;;2.70;;
22211;SDS011;11275;52.488;13.462;2022-10-17T08:55:10;4.30;;;2.58;;
22211;SDS011;11275;52.488;13.462;2022-10-17T08:57:39;4.35;;;2.60;;
22211;SDS011;11275;52.488;13.462;2022-10-17T09:00:07;4.13;;;2.47;;
22211;SDS011;11275;52.488;13.462;2022-10-17T09:02:44;3.75;;;2.22;;
22211;SDS011;11275;52.488;13.462;2022-10-17T09:10:56;3.25;;;2.05;;
22211;SDS011;11275;52.488;13.462;2022-10-17T09:13:42;3.78;;;2.47;;
22211;SDS011;11275;52.488;13.462;2022-10-17T09:16:39;6.05;;;2.25;;
22211;SDS011;11275;52.488;13.462;2022-10-17T09:19:20;6.32;;;2.67;;
22211;SDS011;11275;52.488;13.462;2022-10-17T09:22:08;9.13;;;2.47;;
22211;SDS011;11275;52.488;13.462;2022-10-17T09:24:47;3.00;;;1.80;;
22211;SDS011;11275;52.488;13.462;2022-10-17T09:27:24;5.63;;;2.22;;
22211;SDS011;11275;52.488;13.462;2022-10-17T09:29:52;4.20;;;2.10;;
22211;SDS011;11275;52.488;13.462;2022-10-17T09:32:25;6.28;;;2.00;;
22211;SDS011;11275;52.488;13.462;2022-10-17T09:34:51;4.10;;;2.33;;
22211;SDS011;11275;52.488;13.462;2022-10-17T09:37:17;4.65;;;2.20;;
22211;SDS011;11275;52.488;13.462;2022-10-17T09:39:46;5.00;;;2.28;;
22211;SDS011;11275;52.488;13.462;2022-10-17T09:42:13;3.88;;;2.00;;
22211;SDS011;11275;52.488;13.462;2022-10-17T09:44:54;6.72;;;2.25;;
22211;SDS011;11275;52.488;13.462;2022-10-17T09:47:27;3.08;;;1.90;;
22211;SDS011;11275;52.488;13.462;2022-10-17T09:49:55;4.43;;;2.20;;
22211;SDS011;11275;52.488;13.462;2022-10-17T09:52:35;8.35;;;2.58;;
22211;SDS011;11275;52.488;13.462;2022-10-17T09:57:59;5.40;;;2.20;;
22211;SDS011;11275;52.488;13.462;2022-10-17T10:06:13;2.53;;;1.83;;
22211;SDS011;11275;52.488;13.462;2022-10-17T10:11:21;4.45;;;1.90;;
22211;SDS011;11275;52.488;13.462;2022-10-17T10:13:48;4.90;;;2.17;;
22211;SDS011;11275;52.488;13.462;2022-10-17T10:18:56;3.05;;;2.20;;
22211;SDS011;11275;52.488;13.462;2022-10-17T10:21:24;3.50;;;1.95;;
22211;SDS011;11275;52.488;13.462;2022-10-17T10:24:02;5.88;;;2.05;;
22211;SDS011;11275;52.488;13.462;2022-10-17T10:26:46;3.55;;;1.70;;
22211;SDS011;11275;52.488;13.462;2022-10-17T10:31:50;5.60;;;2.20;;
22211;SDS011;11275;52.488;13.462;2022-10-17T10:34:27;2.30;;;1.88;;
22211;SDS011;11275;52.488;13.462;2022-10-17T10:37:00;2.53;;;1.80;;
22211;SDS011;11275;52.488;13.462;2022-10-17T10:39:32;3.42;;;1.60;;
22211;SDS011;11275;52.488;13.462;2022-10-17T10:42:08;5.95;;;1.85;;
22211;SDS011;11275;52.488;13.462;2022-10-17T10:44:48;9.57;;;2.10;;
22211;SDS011;11275;52.488;13.462;2022-10-17T10:49:42;10.40;;;2.67;;
22211;SDS011;11275;52.488;13.462;2022-10-17T10:52:10;10.25;;;2.10;;
22211;SDS011;11275;52.488;13.462;2022-10-17T10:54:52;6.70;;;1.67;;
22211;SDS011;11275;52.488;13.462;2022-10-17T10:57:24;3.30;;;1.65;;
22211;SDS011;11275;52.488;13.462;2022-10-17T11:02:25;7.03;;;2.05;;
22211;SDS011;11275;52.488;13.462;2022-10-17T11:04:57;6.60;;;1.50;;
22211;SDS011;11275;52.488;13.462;2022-10-17T11:07:37;6.88;;;2.25;;
22211;SDS011;11275;52.488;13.462;2022-10-17T11:12:38;11.25;;;2.78;;
22211;SDS011;11275;52.488;13.462;2022-10-17T11:18:04;1.30;;;1.20;;
22211;SDS011;11275;52.488;13.462;2022-10-17T11:20:41;6.60;;;1.80;;
22211;SDS011;11275;52.488;13.462;2022-10-17T11:23:17;5.07;;;1.70;;
22211;SDS011;11275;52.488;13.462;2022-10-17T11:25:51;6.90;;;1.90;;
22211;SDS011;11275;52.488;13.462;2022-10-17T11:28:19;7.40;;;1.73;;
22211;SDS011;11275;52.488;13.462;2022-10-17T11:31:00;2.90;;;1.60;;
22211;SDS011;11275;52.488;13.462;2022-10-17T11:33:32;3.93;;;1.60;;
22211;SDS011;11275;52.488;13.462;2022-10-17T11:36:13;3.00;;;1.50;;
22211;SDS011;11275;52.488;13.462;2022-10-17T11:38:50;4.97;;;1.70;;
22211;SDS011;11275;52.488;13.462;2022-10-17T11:41:42;5.80;;;1.67;;
22211;SDS011;11275;52.488;13.462;2022-10-17T11:46:54;2.97;;;1.60;;
22211;SDS011;11275;52.488;13.462;2022-10-17T11:49:27;4.78;;;1.65;;
22211;SDS011;11275;52.488;13.462;2022-10-17T11:52:08;4.03;;;1.63;;
22211;SDS011;11275;52.488;13.462;2022-10-17T11:54:40;6.15;;;1.67;;
22211;SDS011;11275;52.488;13.462;2022-10-17T12:13:58;3.60;;;1.60;;
22211;SDS011;11275;52.488;13.462;2022-10-17T12:21:25;6.25;;;2.95;;
22211;SDS011;11275;52.488;13.462;2022-10-17T12:23:51;8.27;;;2.20;;
22211;SDS011;11275;52.488;13.462;2022-10-17T12:26:24;13.88;;;3.40;;
22211;SDS011;11275;52.488;13.462;2022-10-17T12:28:52;12.15;;;2.67;;
22211;SDS011;11275;52.488;13.462;2022-10-17T12:33:49;9.55;;;2.35;;
22211;SDS011;11275;52.488;13.462;2022-10-17T12:38:41;3.92;;;2.10;;
22211;SDS011;11275;52.488;13.462;2022-10-17T12:41:07;6.03;;;2.20;;
22211;SDS011;11275;52.488;13.462;2022-10-17T12:46:08;4.65;;;2.20;;
22211;SDS011;11275;52.488;13.462;2022-10-17T12:56:33;5.97;;;2.28;;
22211;SDS011;11275;52.488;13.462;2022-10-17T12:59:20;8.82;;;2.33;;
22211;SDS011;11275;52.488;13.462;2022-10-17T13:01:53;8.90;;;2.40;;
22211;SDS011;11275;52.488;13.462;2022-10-17T13:04:22;9.10;;;1.98;;
22211;SDS011;11275;52.488;13.462;2022-10-17T13:06:53;7.38;;;2.20;;
22211;SDS011;11275;52.488;13.462;2022-10-17T13:09:28;4.03;;;2.00;;
22211;SDS011;11275;52.488;13.462;2022-10-17T13:11:57;7.38;;;1.88;;
22211;SDS011;11275;52.488;13.462;2022-10-17T13:14:25;6.68;;;2.15;;
22211;SDS011;11275;52.488;13.462;2022-10-17T13:17:36;6.28;;;2.10;;
22211;SDS011;11275;52.488;13.462;2022-10-17T13:19:47;10.68;;;2.50;;
22211;SDS011;11275;52.488;13.462;2022-10-17T13:24:45;9.32;;;3.03;;
22211;SDS011;11275;52.488;13.462;2022-10-17T13:27:22;8.90;;;2.17;;
22211;SDS011;11275;52.488;13.462;2022-10-17T13:29:48;20.25;;;2.90;;
22211;SDS011;11275;52.488;13.462;2022-10-17T13:32:13;19.23;;;2.42;;
22211;SDS011;11275;52.488;13.462;2022-10-17T13:34:39;6.95;;;1.88;;
22211;SDS011;11275;52.488;13.462;2022-10-17T13:37:06;5.47;;;1.75;;
22211;SDS011;11275;52.488;13.462;2022-10-17T13:39:36;7.55;;;2.10;;
22211;SDS011;11275;52.488;13.462;2022-10-17T13:42:04;5.50;;;2.13;;
22211;SDS011;11275;52.488;13.462;2022-10-17T13:44:38;6.70;;;1.90;;
22211;SDS011;11275;52.488;13.462;2022-10-17T13:47:03;5.97;;;2.00;;
22211;SDS011;11275;52.488;13.462;2022-10-17T13:49:33;7.80;;;2.30;;
22211;SDS011;11275;52.488;13.462;2022-10-17T13:52:03;6.82;;;2.30;;
22211;SDS011;11275;52.488;13.462;2022-10-17T13:54:35;6.78;;;1.67;;
22211;SDS011;11275;52.488;13.462;2022-10-17T13:57:05;4.40;;;1.50;;
22211;SDS011;11275;52.488;13.462;2022-10-17T13:59:45;6.68;;;1.98;;
22211;SDS011;11275;52.488;13.462;2022-10-17T14:02:23;3.47;;;1.70;;
22211;SDS011;11275;52.488;13.462;2022-10-17T14:10:20;4.15;;;1.67;;
22211;SDS011;11275;52.488;13.462;2022-10-17T14:12:55;5.15;;;1.45;;
22211;SDS011;11275;52.488;13.462;2022-10-17T14:15:23;7.85;;;2.10;;
22211;SDS011;11275;52.488;13.462;2022-10-17T14:17:56;2.70;;;1.77;;
22211;SDS011;11275;52.488;13.462;2022-10-17T14:20:30;5.65;;;1.77;;
22211;SDS011;11275;52.488;13.462;2022-10-17T14:22:56;4.50;;;1.67;;
22211;SDS011;11275;52.488;13.462;2022-10-17T14:33:07;2.83;;;1.60;;
22211;SDS011;11275;52.488;13.462;2022-10-17T14:35:38;5.85;;;2.45;;
22211;SDS011;11275;52.488;13.462;2022-10-17T14:38:05;7.00;;;1.75;;
22211;SDS011;11275;52.488;13.462;2022-10-17T14:40:32;4.13;;;1.88;;
22211;SDS011;11275;52.488;13.462;2022-10-17T14:42:59;4.40;;;2.05;;
22211;SDS011;11275;52.488;13.462;2022-10-17T14:45:35;3.60;;;1.70;;
22211;SDS011;11275;52.488;13.462;2022-10-17T14:48:10;5.65;;;2.10;;
22211;SDS011;11275;52.488;13.462;2022-10-17T14:50:39;4.82;;;1.73;;
22211;SDS011;11275;52.488;13.462;2022-10-17T14:53:27;3.67;;;1.90;;
22211;SDS011;11275;52.488;13.462;2022-10-17T14:55:55;5.80;;;2.08;;
22211;SDS011;11275;52.488;13.462;2022-10-17T14:58:24;3.67;;;2.33;;
22211;SDS011;11275;52.488;13.462;2022-10-17T15:00:55;2.88;;;1.83;;
22211;SDS011;11275;52.488;13.462;2022-10-17T15:03:21;7.32;;;2.28;;
22211;SDS011;11275;52.488;13.462;2022-10-17T15:05:48;4.40;;;2.30;;
22211;SDS011;11275;52.488;13.462;2022-10-17T15:08:15;3.55;;;2.03;;
22211;SDS011;11275;52.488;13.462;2022-10-17T15:10:42;2.92;;;1.90;;
22211;SDS011;11275;52.488;13.462;2022-10-17T15:13:10;4.10;;;2.20;;
22211;SDS011;11275;52.488;13.462;2022-10-17T15:15:37;7.10;;;2.00;;
22211;SDS011;11275;52.488;13.462;2022-10-17T15:18:04;7.82;;;1.98;;
22211;SDS011;11275;52.488;13.462;2022-10-17T15:20:30;5.88;;;1.90;;
22211;SDS011;11275;52.488;13.462;2022-10-17T15:22:57;4.18;;;2.25;;
22211;SDS011;11275;52.488;13.462;2022-10-17T15:25:24;4.03;;;1.90;;
22211;SDS011;11275;52.488;13.462;2022-10-17T15:27:51;4.93;;;1.90;;
22211;SDS011;11275;52.488;13.462;2022-10-17T15:30:28;4.95;;;2.20;;
22211;SDS011;11275;52.488;13.462;2022-10-17T15:32:58;4.45;;;2.10;;
22211;SDS011;11275;52.488;13.462;2022-10-17T15:35:24;8.05;;;2.75;;
22211;SDS011;11275;52.488;13.462;2022-10-17T15:37:51;6.20;;;3.10;;
22211;SDS011;11275;52.488;13.462;2022-10-17T15:42:49;6.55;;;3.03;;
22211;SDS011;11275;52.488;13.462;2022-10-17T15:45:16;4.53;;;2.75;;
22211;SDS011;11275;52.488;13.462;2022-10-17T15:47:49;5.88;;;2.42;;
22211;SDS011;11275;52.488;13.462;2022-10-17T15:50:17;7.85;;;2.78;;
22211;SDS011;11275;52.488;13.462;2022-10-17T15:52:43;10.57;;;3.20;;
22211;SDS011;11275;52.488;13.462;2022-10-17T15:55:11;5.43;;;2.33;;
22211;SDS011;11275;52.488;13.462;2022-10-17T15:57:37;4.65;;;2.20;;
22211;SDS011;11275;52.488;13.462;2022-10-17T16:00:06;5.00;;;2.58;;
22211;SDS011;11275;52.488;13.462;2022-10-17T16:02:36;6.63;;;2.72;;
22211;SDS011;11275;52.488;13.462;2022-10-17T16:05:05;4.63;;;2.28;;
22211;SDS011;11275;52.488;13.462;2022-10-17T16:07:47;4.95;;;2.50;;
22211;SDS011;11275;52.488;13.462;2022-10-17T16:10:14;6.22;;;3.03;;
22211;SDS011;11275;52.488;13.462;2022-10-17T16:12:40;4.68;;;2.40;;
22211;SDS011;11275;52.488;13.462;2022-10-17T16:15:10;7.43;;;2.38;;
22211;SDS011;11275;52.488;13.462;2022-10-17T16:17:38;5.22;;;2.30;;
22211;SDS011;11275;52.488;13.462;2022-10-17T16:20:04;6.90;;;1.83;;
22211;SDS011;11275;52.488;13.462;2022-10-17T16:22:31;6.18;;;2.60;;
22211;SDS011;11275;52.488;13.462;2022-10-17T16:25:00;3.28;;;1.80;;
22211;SDS011;11275;52.488;13.462;2022-10-17T16:27:34;6.93;;;2.33;;
22211;SDS011;11275;52.488;13.462;2022-10-17T16:30:01;7.13;;;2.33;;
22211;SDS011;11275;52.488;13.462;2022-10-17T16:32:28;3.47;;;2.40;;
22211;SDS011;11275;52.488;13.462;2022-10-17T16:34:53;7.18;;;2.72;;
22211;SDS011;11275;52.488;13.462;2022-10-17T16:37:19;8.55;;;2.97;;
22211;SDS011;11275;52.488;13.462;2022-10-17T16:39:44;10.32;;;3.10;;
22211;SDS011;11275;52.488;13.462;2022-10-17T16:42:16;6.35;;;2.30;;
22211;SDS011;11275;52.488;13.462;2022-10-17T16:44:42;4.85;;;2.47;;
22211;SDS011;11275;52.488;13.462;2022-10-17T16:47:08;7.90;;;2.65;;
22211;SDS011;11275;52.488;13.462;2022-10-17T16:49:34;5.80;;;2.50;;